createdAt,value
2018-06-27T00:00:10.821Z,100422.25
2018-06-27T00:02:36.809Z,100425.70
2018-06-27T00:05:02.760Z,100425.36
2018-06-27T00:07:28.730Z,100425.47
2018-06-27T00:09:54.675Z,100428.58
2018-06-27T00:12:20.624Z,100436.09
2018-06-27T00:14:46.582Z,100430.44
2018-06-27T00:17:12.509Z,100426.78
2018-06-27T00:19:38.523Z,100421.09
2018-06-27T00:22:04.504Z,100426.13
2018-06-27T00:24:30.454Z,100431.64
2018-06-27T00:26:56.408Z,100427.70
2018-06-27T00:29:22.404Z,100431.64
2018-06-27T00:31:48.355Z,100434.34
2018-06-27T00:34:14.309Z,100434.32
2018-06-27T00:36:40.257Z,100440.11
2018-06-27T00:39:06.222Z,100439.28
2018-06-27T00:41:32.172Z,100439.22
2018-06-27T00:43:58.119Z,100439.20
2018-06-27T00:46:24.049Z,100437.46
2018-06-27T00:48:50.018Z,100440.52
2018-06-27T00:51:15.999Z,100442.77
2018-06-27T00:53:41.976Z,100451.34
2018-06-27T00:56:07.923Z,100446.75
2018-06-27T00:58:33.886Z,100451.02
2018-06-27T01:00:59.848Z,100446.47
2018-06-27T01:03:25.794Z,100454.00
2018-06-27T01:05:51.732Z,100447.13
2018-06-27T01:08:17.694Z,100447.19
2018-06-27T01:10:43.719Z,100452.05
2018-06-27T01:13:09.607Z,100461.42
2018-06-27T01:15:35.545Z,100461.92
2018-06-27T01:18:01.476Z,100466.07
2018-06-27T01:20:27.432Z,100466.49
2018-06-27T01:22:53.411Z,100463.09
2018-06-27T01:25:19.377Z,100467.61
2018-06-27T01:27:45.316Z,100466.92
2018-06-27T01:30:11.282Z,100469.09
2018-06-27T01:32:37.228Z,100470.34
2018-06-27T01:35:03.205Z,100467.80
2018-06-27T01:37:29.169Z,100475.44
2018-06-27T01:39:55.111Z,100473.78
2018-06-27T01:42:21.063Z,100477.03
2018-06-27T01:44:47.018Z,100480.04
2018-06-27T01:47:12.975Z,100483.48
2018-06-27T01:49:38.910Z,100488.09
2018-06-27T01:52:04.854Z,100488.43
2018-06-27T01:54:30.813Z,100485.51
2018-06-27T01:56:56.787Z,100481.83
2018-06-27T01:59:22.730Z,100486.06
2018-06-27T02:01:48.682Z,100487.36
2018-06-27T02:04:14.649Z,100489.47
2018-06-27T02:06:40.631Z,100487.40
2018-06-27T02:09:06.633Z,100490.83
2018-06-27T02:11:32.563Z,100486.47
2018-06-27T02:13:58.504Z,100491.78
2018-06-27T02:16:24.446Z,100491.38
2018-06-27T02:18:50.385Z,100493.89
2018-06-27T02:21:16.359Z,100497.34
2018-06-27T02:23:42.314Z,100501.26
2018-06-27T02:26:08.323Z,100495.81
2018-06-27T02:28:34.300Z,100487.41
2018-06-27T02:31:00.262Z,100490.73
2018-06-27T02:33:26.236Z,100488.23
2018-06-27T02:35:52.203Z,100484.87
2018-06-27T02:38:18.147Z,100484.91
2018-06-27T02:40:44.104Z,100481.58
2018-06-27T02:43:10.068Z,100479.06
2018-06-27T02:45:36.018Z,100487.90
2018-06-27T02:48:02.014Z,100491.75
2018-06-27T02:50:27.979Z,100498.58
2018-06-27T02:52:53.963Z,100491.34
2018-06-27T02:55:19.920Z,100494.80
2018-06-27T02:57:45.872Z,100498.69
2018-06-27T03:00:11.833Z,100497.36
2018-06-27T03:02:37.835Z,100500.67
2018-06-27T03:05:03.765Z,100496.00
2018-06-27T03:07:29.731Z,100503.53
2018-06-27T03:09:55.699Z,100503.53
2018-06-27T03:12:21.833Z,100506.50
2018-06-27T03:14:47.800Z,100504.50
2018-06-27T03:17:13.758Z,100501.59
2018-06-27T03:19:40.745Z,100506.73
2018-06-27T03:22:07.930Z,100504.19
2018-06-27T03:24:33.936Z,100502.91
2018-06-27T03:26:59.903Z,100505.45
2018-06-27T03:29:25.932Z,100504.17
2018-06-27T03:31:51.924Z,100502.89
2018-06-27T03:34:17.897Z,100502.50
2018-06-27T03:36:44.022Z,100502.89
2018-06-27T03:39:10.107Z,100505.41
2018-06-27T03:41:36.096Z,100506.30
2018-06-27T03:44:02.080Z,100510.94
2018-06-27T03:46:28.040Z,100512.63
2018-06-27T03:48:53.976Z,100516.02
2018-06-27T03:51:20.182Z,100518.13
2018-06-27T03:53:46.209Z,100524.43
2018-06-27T03:56:12.154Z,100531.52
2018-06-27T03:58:38.132Z,100531.91
2018-06-27T04:01:04.126Z,100531.44
2018-06-27T04:03:30.054Z,100533.67
2018-06-27T04:05:56.010Z,100536.61
2018-06-27T04:08:22.037Z,100539.98
2018-06-27T04:10:48.017Z,100540.34
2018-06-27T04:13:13.997Z,100542.34
2018-06-27T04:15:39.934Z,100546.12
2018-06-27T04:18:05.974Z,100545.25
2018-06-27T04:20:31.984Z,100543.97
2018-06-27T04:22:57.953Z,100549.85
2018-06-27T04:25:24.005Z,100551.39
2018-06-27T04:27:49.997Z,100548.05
2018-06-27T04:30:15.950Z,100552.58
2018-06-27T04:32:41.923Z,100552.84
2018-06-27T04:35:07.866Z,100557.81
2018-06-27T04:37:33.829Z,100553.41
2018-06-27T04:39:59.785Z,100555.03
2018-06-27T04:42:25.751Z,100553.91
2018-06-27T04:44:51.684Z,100557.79
2018-06-27T04:47:17.640Z,100554.89
2018-06-27T04:49:43.611Z,100555.59
2018-06-27T04:52:09.577Z,100556.98
2018-06-27T04:54:35.614Z,100563.38
2018-06-27T04:57:01.580Z,100563.19
2018-06-27T04:59:27.544Z,100561.31
2018-06-27T05:01:53.540Z,100569.20
2018-06-27T05:04:19.545Z,100563.15
2018-06-27T05:06:45.521Z,100562.11
2018-06-27T05:09:11.502Z,100565.38
2018-06-27T05:11:37.509Z,100563.97
2018-06-27T05:14:03.495Z,100561.61
2018-06-27T05:16:29.519Z,100564.62
2018-06-27T05:18:55.469Z,100570.28
2018-06-27T05:21:21.420Z,100573.78
2018-06-27T05:23:47.386Z,100575.87
2018-06-27T05:26:13.368Z,100576.03
2018-06-27T05:28:39.335Z,100588.49
2018-06-27T05:31:05.311Z,100581.48
2018-06-27T05:33:31.307Z,100585.48
2018-06-27T05:35:57.263Z,100589.72
2018-06-27T05:38:23.262Z,100595.58
2018-06-27T05:40:49.258Z,100601.14
2018-06-27T05:43:15.250Z,100607.33
2018-06-27T05:45:41.190Z,100604.23
2018-06-27T05:48:07.171Z,100598.86
2018-06-27T05:50:33.192Z,100603.69
2018-06-27T05:52:59.197Z,100598.39
2018-06-27T05:55:25.176Z,100601.61
2018-06-27T05:57:51.163Z,100600.08
2018-06-27T06:00:17.126Z,100604.56
2018-06-27T06:02:43.121Z,100601.19
2018-06-27T06:05:09.075Z,100604.30
2018-06-27T06:07:35.030Z,100606.78
2018-06-27T06:10:00.997Z,100610.79
2018-06-27T06:12:26.990Z,100602.75
2018-06-27T06:14:52.938Z,100611.22
2018-06-27T06:17:18.887Z,100611.31
2018-06-27T06:19:44.916Z,100610.42
2018-06-27T06:22:10.851Z,100618.89
2018-06-27T06:24:36.828Z,100618.23
2018-06-27T06:27:02.776Z,100615.79
2018-06-27T06:29:28.768Z,100617.16
2018-06-27T06:31:54.716Z,100615.70
2018-06-27T06:34:20.669Z,100621.56
2018-06-27T06:36:46.617Z,100620.35
2018-06-27T06:39:12.556Z,100616.16
2018-06-27T06:41:38.539Z,100611.34
2018-06-27T06:44:04.478Z,100617.23
2018-06-27T06:46:30.430Z,100516.34
2018-06-27T06:48:56.452Z,100626.10
2018-06-27T06:51:22.421Z,100627.14
2018-06-27T06:53:48.387Z,100633.72
2018-06-27T06:56:14.440Z,100631.03
2018-06-27T06:58:40.441Z,100636.81
2018-06-27T07:01:06.424Z,100636.29
2018-06-27T07:03:32.393Z,100633.08
2018-06-27T07:05:58.331Z,100636.11
2018-06-27T07:08:24.300Z,100635.27
2018-06-27T07:10:50.258Z,100640.98
2018-06-27T07:13:16.273Z,100639.02
2018-06-27T07:15:42.227Z,100638.42
2018-06-27T07:18:08.250Z,100631.73
2018-06-27T07:20:34.218Z,100630.37
2018-06-27T07:23:00.177Z,100631.80
2018-06-27T07:25:26.114Z,100634.32
2018-06-27T07:27:52.086Z,100631.49
2018-06-27T07:30:18.061Z,100635.80
2018-06-27T07:32:44.014Z,100626.29
2018-06-27T07:35:09.970Z,100635.80
2018-06-27T07:37:35.986Z,100625.31
2018-06-27T07:40:02.022Z,100626.85
2018-06-27T07:42:28.052Z,100630.15
2018-06-27T07:44:54.050Z,100628.77
2018-06-27T07:47:20.036Z,100626.77
2018-06-27T07:49:46.060Z,100636.82
2018-06-27T07:52:11.962Z,100634.57
2018-06-27T07:54:37.963Z,100642.97
2018-06-27T07:57:03.950Z,100641.76
2018-06-27T07:59:29.928Z,100642.17
2018-06-27T08:01:56.671Z,100633.84
2018-06-27T08:04:22.659Z,100635.55
2018-06-27T08:06:48.641Z,100633.41
2018-06-27T08:09:14.658Z,100638.32
2018-06-27T08:11:40.582Z,100627.12
2018-06-27T08:14:06.535Z,100625.73
2018-06-27T08:16:32.477Z,100641.70
2018-06-27T08:18:58.440Z,100628.17
2018-06-27T08:21:24.479Z,100632.47
2018-06-27T08:23:50.474Z,100631.52
2018-06-27T08:26:16.543Z,100629.98
2018-06-27T08:28:42.557Z,100628.62
2018-06-27T08:31:08.537Z,100633.16
2018-06-27T08:33:34.601Z,100636.50
2018-06-27T08:36:00.597Z,100642.66
2018-06-27T08:38:26.617Z,100633.83
2018-06-27T08:40:52.620Z,100639.94
2018-06-27T08:43:18.668Z,100637.19
2018-06-27T08:45:44.669Z,100637.92
2018-06-27T08:48:10.693Z,100635.12
2018-06-27T08:50:36.768Z,100635.91
2018-06-27T08:53:02.778Z,100648.34
2018-06-27T08:55:28.766Z,100634.66
2018-06-27T08:57:54.821Z,100633.40
2018-06-27T09:00:20.812Z,100630.55
2018-06-27T09:02:46.765Z,100639.33
2018-06-27T09:05:12.777Z,100641.23
2018-06-27T09:07:38.859Z,100642.47
2018-06-27T09:10:04.830Z,100642.05
2018-06-27T09:12:30.852Z,100638.98
2018-06-27T09:14:56.879Z,100641.47
2018-06-27T09:17:22.878Z,100638.70
2018-06-27T09:19:48.829Z,100642.01
2018-06-27T09:22:14.848Z,100635.55
2018-06-27T09:24:40.854Z,100643.03
2018-06-27T09:27:06.869Z,100640.45
2018-06-27T09:29:32.941Z,100651.67
2018-06-27T09:31:58.961Z,100645.11
2018-06-27T09:34:24.963Z,100645.05
2018-06-27T09:36:50.985Z,100646.19
2018-06-27T09:39:17.038Z,100646.20
2018-06-27T09:41:43.040Z,100644.97
2018-06-27T09:44:09.050Z,100645.23
2018-06-27T09:46:35.104Z,100634.89
2018-06-27T09:49:02.126Z,100642.79
2018-06-27T09:51:28.165Z,100638.00
2018-06-27T09:53:54.186Z,100639.41
2018-06-27T09:56:20.224Z,100632.95
2018-06-27T09:58:46.218Z,100635.94
2018-06-27T10:01:12.145Z,100632.98
2018-06-27T10:03:38.082Z,100633.72
2018-06-27T10:06:04.022Z,100621.66
2018-06-27T10:08:29.960Z,100621.52
2018-06-27T10:10:55.910Z,100627.38
2018-06-27T10:13:21.982Z,100621.23
2018-06-27T10:15:47.964Z,100622.59
2018-06-27T10:18:13.956Z,100631.70
2018-06-27T10:20:39.984Z,100616.44
2018-06-27T10:23:05.955Z,100617.83
2018-06-27T10:25:31.951Z,100627.12
2018-06-27T10:27:57.889Z,100618.89
2018-06-27T10:30:23.826Z,100622.73
2018-06-27T10:32:49.806Z,100623.63
2018-06-27T10:35:15.784Z,100630.14
2018-06-27T10:37:41.735Z,100618.28
2018-06-27T10:40:07.671Z,100617.68
2018-06-27T10:42:33.665Z,100609.24
2018-06-27T10:44:59.625Z,100613.52
2018-06-27T10:47:25.668Z,100610.20
2018-06-27T10:49:51.640Z,100624.94
2018-06-27T10:52:17.590Z,100616.72
2018-06-27T10:54:43.520Z,100613.83
2018-06-27T10:57:09.479Z,100621.38
2018-06-27T10:59:35.443Z,100616.79
2018-06-27T11:02:01.409Z,100614.94
2018-06-27T11:04:27.366Z,100621.66
2018-06-27T11:06:53.312Z,100627.57
2018-06-27T11:09:19.275Z,100626.86
2018-06-27T11:11:45.237Z,100622.34
2018-06-27T11:14:11.228Z,100621.41
2018-06-27T11:16:37.159Z,100619.95
2018-06-27T11:19:03.089Z,100626.80
2018-06-27T11:21:29.062Z,100616.55
2018-06-27T11:23:55.008Z,100614.41
2018-06-27T11:26:20.974Z,100606.89
2018-06-27T11:28:46.943Z,100613.83
2018-06-27T11:31:12.929Z,100619.28
2018-06-27T11:33:38.873Z,100615.16
2018-06-27T11:36:04.803Z,100616.86
2018-06-27T11:38:30.811Z,100621.42
2018-06-27T11:40:56.705Z,100617.29
2018-06-27T11:43:22.671Z,100610.78
2018-06-27T11:45:48.635Z,100614.48
2018-06-27T11:48:14.595Z,100607.42
2018-06-27T11:50:40.556Z,100603.39
2018-06-27T11:53:06.534Z,100603.52
2018-06-27T11:55:32.494Z,100599.36
2018-06-27T11:57:58.459Z,100609.55
2018-06-27T12:00:24.415Z,100604.80
2018-06-27T12:02:50.373Z,100594.05
2018-06-27T12:05:16.314Z,100596.34
2018-06-27T12:07:42.282Z,100590.08
2018-06-27T12:10:08.228Z,100591.25
2018-06-27T12:12:34.201Z,100581.77
2018-06-27T12:15:00.301Z,100592.02
2018-06-27T12:17:26.256Z,100589.38
2018-06-27T12:19:52.212Z,100587.01
2018-06-27T12:22:18.172Z,100585.07
2018-06-27T12:24:44.125Z,100594.62
2018-06-27T12:27:10.089Z,100610.09
2018-06-27T12:29:36.061Z,100594.44
2018-06-27T12:32:02.054Z,100597.55
2018-06-27T12:34:27.994Z,100606.05
2018-06-27T12:36:53.943Z,100596.92
2018-06-27T12:39:19.905Z,100592.41
2018-06-27T12:41:45.867Z,100597.55
2018-06-27T12:44:11.830Z,100591.09
2018-06-27T12:46:37.758Z,100593.27
2018-06-27T12:49:03.708Z,100590.20
2018-06-27T12:51:29.657Z,100582.73
2018-06-27T12:53:55.675Z,100577.06
2018-06-27T12:56:21.615Z,100578.34
2018-06-27T12:58:47.573Z,100585.88
2018-06-27T13:01:13.542Z,100570.18
2018-06-27T13:03:39.497Z,100572.83
2018-06-27T13:06:05.441Z,100577.33
2018-06-27T13:08:31.393Z,100572.81
2018-06-27T13:10:58.237Z,100566.19
2018-06-27T13:13:24.221Z,100568.13
2018-06-27T13:15:50.234Z,100564.44
2018-06-27T13:18:16.157Z,100552.84
2018-06-27T13:20:42.178Z,100568.42
2018-06-27T13:23:08.194Z,100572.65
2018-06-27T13:25:34.185Z,100568.97
2018-06-27T13:28:02.522Z,100563.41
2018-06-27T13:30:28.594Z,100571.48
2018-06-27T13:32:54.570Z,100565.83
2018-06-27T13:35:20.504Z,100568.63
2018-06-27T13:40:17.922Z,100551.98
2018-06-27T13:42:43.881Z,100544.88
2018-06-27T13:45:09.838Z,100549.20
2018-06-27T13:47:35.813Z,100563.45
2018-06-27T13:50:01.779Z,100546.26
2018-06-27T13:57:33.678Z,100540.19
2018-06-27T14:00:00.662Z,100543.48
2018-06-27T14:02:26.610Z,100542.94
2018-06-27T14:04:52.557Z,100537.66
2018-06-27T14:07:18.509Z,100530.10
2018-06-27T14:09:44.536Z,100543.27
2018-06-27T14:12:10.492Z,100537.55
2018-06-27T14:14:36.478Z,100530.57
2018-06-27T14:17:02.433Z,100534.98
2018-06-27T14:19:28.413Z,100525.48
2018-06-27T14:21:54.390Z,100537.59
2018-06-27T14:24:20.409Z,100537.50
2018-06-27T14:26:46.350Z,100523.69
2018-06-27T14:29:12.290Z,100529.10
2018-06-27T14:31:38.233Z,100527.81
2018-06-27T14:34:04.208Z,100519.95
2018-06-27T14:36:30.171Z,100524.99
2018-06-27T14:38:56.110Z,100524.58
2018-06-27T14:41:22.076Z,100530.57
2018-06-27T14:43:48.081Z,100539.25
2018-06-27T14:46:14.072Z,100525.61
2018-06-27T14:48:40.045Z,100532.41
2018-06-27T14:51:06.000Z,100521.76
2018-06-27T14:53:31.970Z,100525.95
2018-06-27T14:55:57.892Z,100524.88
2018-06-27T14:58:23.821Z,100534.59
2018-06-27T15:00:49.781Z,100534.20
2018-06-27T15:03:15.726Z,100528.09
2018-06-27T15:05:41.688Z,100527.48
2018-06-27T15:08:07.636Z,100529.97
2018-06-27T15:10:33.590Z,100526.59
2018-06-27T15:12:59.536Z,100527.23
2018-06-27T15:15:25.495Z,100534.98
2018-06-27T15:17:51.435Z,100523.98
2018-06-27T15:20:17.376Z,100518.94
2018-06-27T15:22:43.350Z,100517.19
2018-06-27T15:25:09.287Z,100521.92
2018-06-27T15:27:35.235Z,100529.70
2018-06-27T15:30:01.176Z,100535.02
2018-06-27T15:32:27.113Z,100516.16
2018-06-27T15:34:53.053Z,100522.14
2018-06-27T15:37:18.979Z,100526.20
2018-06-27T15:39:44.941Z,100517.60
2018-06-27T15:44:43.276Z,100528.69
2018-06-27T15:47:09.286Z,100522.91
2018-06-27T15:49:35.250Z,100525.59
2018-06-27T15:52:01.186Z,100518.95
2018-06-27T15:54:27.161Z,100530.42
2018-06-27T15:56:53.174Z,100517.31
2018-06-27T15:59:19.104Z,100512.52
2018-06-27T16:01:45.078Z,100515.72
2018-06-27T16:04:11.144Z,100521.28
2018-06-27T16:06:37.085Z,100514.53
2018-06-27T16:09:03.059Z,100512.94
2018-06-27T16:11:29.100Z,100514.39
2018-06-27T16:13:55.014Z,100508.97
2018-06-27T16:16:21.020Z,100503.67
2018-06-27T16:18:46.992Z,100511.24
2018-06-27T16:21:12.923Z,100511.11
2018-06-27T16:23:38.884Z,100515.81
2018-06-27T16:26:04.845Z,100503.37
2018-06-27T16:28:30.790Z,100500.92
2018-06-27T16:30:56.721Z,100504.27
2018-06-27T16:33:22.668Z,100502.47
2018-06-27T16:35:48.693Z,100502.43
2018-06-27T16:38:14.614Z,100499.95
2018-06-27T16:40:40.583Z,100471.81
2018-06-27T16:43:06.578Z,100493.88
2018-06-27T16:45:32.526Z,100499.95
2018-06-27T16:47:58.457Z,100497.47
2018-06-27T16:50:24.431Z,100496.91
2018-06-27T16:52:50.413Z,100502.47
2018-06-27T16:55:16.435Z,100505.16
2018-06-27T16:57:42.380Z,100504.27
2018-06-27T17:00:08.338Z,100496.14
2018-06-27T17:02:34.292Z,100498.70
2018-06-27T17:05:00.257Z,100512.82
2018-06-27T17:07:26.224Z,100507.26
2018-06-27T17:09:52.164Z,100508.67
2018-06-27T17:12:18.117Z,100503.53
2018-06-27T17:14:44.048Z,100503.41
2018-06-27T17:17:10.011Z,100502.52
2018-06-27T17:19:35.959Z,100496.27
2018-06-27T17:22:01.932Z,100498.36
2018-06-27T17:24:27.874Z,100500.30
2018-06-27T17:26:53.830Z,100492.81
2018-06-27T17:29:19.777Z,100483.83
2018-06-27T17:31:45.757Z,100493.28
2018-06-27T17:34:11.797Z,100500.42
2018-06-27T17:36:37.754Z,100505.97
2018-06-27T17:39:03.700Z,100507.64
2018-06-27T17:41:29.694Z,100513.76
2018-06-27T17:43:55.653Z,100506.02
2018-06-27T17:46:21.634Z,100513.20
2018-06-27T17:48:47.583Z,100504.27
2018-06-27T17:51:13.696Z,100508.54
2018-06-27T17:53:39.708Z,100515.52
2018-06-27T17:56:05.688Z,100512.14
2018-06-27T17:58:31.639Z,100508.08
2018-06-27T18:00:57.609Z,100506.92
2018-06-27T18:03:23.567Z,100511.24
2018-06-27T18:05:49.525Z,100509.91
2018-06-27T18:08:15.491Z,100506.58
2018-06-27T18:10:41.436Z,100503.84
2018-06-27T18:13:07.424Z,100500.03
2018-06-27T18:15:33.368Z,100503.88
2018-06-27T18:17:59.358Z,100501.40
2018-06-27T18:20:25.333Z,100500.20
2018-06-27T18:22:51.305Z,100503.97
2018-06-27T18:25:17.268Z,100507.05
2018-06-27T18:27:43.212Z,100508.67
2018-06-27T18:30:09.266Z,100512.14
2018-06-27T18:32:35.241Z,100511.33
2018-06-27T18:35:01.191Z,100512.22
2018-06-27T18:37:27.168Z,100506.19
2018-06-27T18:39:53.128Z,100517.27
2018-06-27T18:42:19.090Z,100518.63
2018-06-27T18:44:45.138Z,100513.11
2018-06-27T18:47:11.117Z,100513.16
2018-06-27T18:49:37.157Z,100520.00
2018-06-27T18:52:03.241Z,100522.01
2018-06-27T18:54:29.192Z,100513.03
2018-06-27T18:56:55.198Z,100521.67
2018-06-27T18:59:21.179Z,100525.94
2018-06-27T19:01:47.360Z,100524.70
2018-06-27T19:04:13.213Z,100527.92
2018-06-27T19:06:39.266Z,100528.58
2018-06-27T19:09:05.235Z,100526.80
2018-06-27T19:11:31.234Z,100532.39
2018-06-27T19:13:57.355Z,100529.88
2018-06-27T19:16:23.309Z,100535.78
2018-06-27T19:18:49.289Z,100540.01
2018-06-27T19:21:15.249Z,100531.06
2018-06-27T19:23:41.214Z,100528.33
2018-06-27T19:26:07.237Z,100429.23
2018-06-27T19:28:33.225Z,100532.56
2018-06-27T19:30:59.193Z,100538.94
2018-06-27T19:33:25.139Z,100530.93
2018-06-27T19:35:51.127Z,100534.19
2018-06-27T19:38:17.181Z,100529.53
2018-06-27T19:40:43.063Z,100532.02
2018-06-27T19:43:09.025Z,100540.69
2018-06-27T19:45:35.030Z,100533.84
2018-06-27T19:48:00.971Z,100534.34
2018-06-27T19:50:26.925Z,100533.03
2018-06-27T19:52:52.886Z,100534.31
2018-06-27T19:55:18.899Z,100540.42
2018-06-27T19:57:44.820Z,100543.37
2018-06-27T20:00:10.846Z,100541.70
2018-06-27T20:02:36.814Z,100549.39
2018-06-27T20:05:02.795Z,100547.68
2018-06-27T20:07:28.779Z,100545.16
2018-06-27T20:09:54.773Z,100547.30
2018-06-27T20:12:21.067Z,100544.50
2018-06-27T20:14:47.023Z,100547.80
2018-06-27T20:17:13.000Z,100545.70
2018-06-27T20:19:39.084Z,100549.91
2018-06-27T20:22:05.135Z,100553.40
2018-06-27T20:24:31.081Z,100550.49
2018-06-27T20:26:57.059Z,100555.58
2018-06-27T20:29:23.034Z,100552.43
2018-06-27T20:31:49.046Z,100557.33
2018-06-27T20:34:15.126Z,100561.64
2018-06-27T20:36:41.119Z,100556.44
2018-06-27T20:39:07.089Z,100554.88
2018-06-27T20:41:33.038Z,100552.63
2018-06-27T20:43:59.000Z,100555.19
2018-06-27T20:46:24.979Z,100552.12
2018-06-27T20:48:51.038Z,100552.66
2018-06-27T20:51:16.988Z,100550.29
2018-06-27T20:53:43.063Z,100555.38
2018-06-27T20:56:09.029Z,100553.28
2018-06-27T20:58:35.005Z,100551.89
2018-06-27T21:01:01.000Z,100550.76
2018-06-27T21:03:26.974Z,100550.72
2018-06-27T21:05:52.954Z,100551.61
2018-06-27T21:08:18.913Z,100548.58
2018-06-27T21:10:44.913Z,100546.80
2018-06-27T21:13:10.855Z,100550.17
2018-06-27T21:15:36.836Z,100546.02
2018-06-27T21:18:02.788Z,100543.50
2018-06-27T21:20:28.744Z,100545.39
2018-06-27T21:22:54.731Z,100545.28
2018-06-27T21:25:20.671Z,100546.06
2018-06-27T21:27:46.641Z,100544.86
2018-06-27T21:30:12.624Z,100540.34
2018-06-27T21:32:38.655Z,100547.64
2018-06-27T21:35:04.601Z,100543.65
2018-06-27T21:37:30.558Z,100542.87
2018-06-27T21:39:56.510Z,100541.70
2018-06-27T21:42:22.476Z,100541.73
2018-06-27T21:44:48.452Z,100543.48
2018-06-27T21:47:14.442Z,100546.44
2018-06-27T21:49:40.425Z,100541.89
2018-06-27T21:52:06.393Z,100548.69
2018-06-27T21:54:32.341Z,100545.59
2018-06-27T21:56:58.285Z,100546.94
2018-06-27T21:59:24.241Z,100549.05
2018-06-27T22:01:50.232Z,100550.28
2018-06-27T22:04:16.177Z,100545.97
2018-06-27T22:06:42.157Z,100546.05
2018-06-27T22:09:08.177Z,100549.89
2018-06-27T22:11:34.076Z,100550.28
2018-06-27T22:14:00.026Z,100550.05
2018-06-27T22:16:25.988Z,100545.73
2018-06-27T22:18:51.925Z,100548.62
2018-06-27T22:21:17.879Z,100549.81
2018-06-27T22:23:43.825Z,100552.45
2018-06-27T22:26:09.776Z,100546.23
2018-06-27T22:28:35.724Z,100542.59
2018-06-27T22:31:01.718Z,100543.48
2018-06-27T22:33:27.747Z,100540.42
2018-06-27T22:35:53.675Z,100540.58
2018-06-27T22:38:19.642Z,100539.33
2018-06-27T22:40:45.590Z,100538.41
2018-06-27T22:43:11.537Z,100540.03
2018-06-27T22:45:37.499Z,100538.41
2018-06-27T22:48:03.441Z,100536.77
2018-06-27T22:50:29.390Z,100534.20
2018-06-27T22:52:55.376Z,100533.00
2018-06-27T22:55:21.366Z,100539.05
2018-06-27T22:57:47.360Z,100535.20
2018-06-27T23:00:13.319Z,100533.39
2018-06-27T23:02:39.257Z,100531.47
2018-06-27T23:05:05.195Z,100533.22
2018-06-27T23:07:31.148Z,100530.12
2018-06-27T23:09:57.091Z,100525.64
2018-06-27T23:12:23.056Z,100519.23
2018-06-27T23:14:49.041Z,100521.80
2018-06-27T23:17:15.015Z,100515.61
2018-06-27T23:19:40.985Z,100519.80
2018-06-27T23:22:06.929Z,100516.56
2018-06-27T23:24:32.937Z,100518.45
2018-06-27T23:26:58.910Z,100513.66
2018-06-27T23:29:24.844Z,100512.30
2018-06-27T23:31:50.793Z,100514.33
2018-06-27T23:34:16.757Z,100512.16
2018-06-27T23:36:42.748Z,100503.87
2018-06-27T23:39:08.724Z,100503.98
2018-06-27T23:41:34.724Z,100497.35
2018-06-27T23:44:00.668Z,100428.20
2018-06-27T23:46:26.633Z,100485.83
2018-06-27T23:48:52.579Z,100481.23
2018-06-27T23:51:18.540Z,100477.30
2018-06-27T23:53:44.490Z,100481.02
2018-06-27T23:56:10.518Z,100478.39
2018-06-27T23:58:36.543Z,100476.70
